Česky Dansk Deutsch English Español Suomi Français Magyar Italiano Nederlands norsk Polski Português svenska Türkçe

 

Het Weer

Gallivare (Zweden)

15:50, 2 augustus 2016 (GMT)

NWNNE
WE
SWSSE
Home            
Gallivare Jokkmokk Kiruna Airport Vidsel Pello Enontekio Kittila Lulea / Kallax Narvik Iii Evenes Kautokeino Bardufoss Kemi Rovaniemi Sodankyla Bodo Vi Gunnarn Svolvaer / Helle Skelleftea Airport Storkmarknes / Skagen Tromso / Langnes Mo I Rana / Rossvoll Sorkjosen

Om een weerknop op uw website of weblog te plaatsen, copieer onderstaande code en plak die in uw pagina. In het eerste vakje staat HTML-code, in het tweede vakje UBB-code.


Add to Google

Details

Wind speed:2 bf, 4 kn, 2.1 m/s, 4.6 miles/h, 7.4 km/h
Wind direction:ESE, 110°
Visibility:Greater than 10000 m, 10 km, 32800 ft, 6.2 miles
Clouds:Aufgelockert bewölkt at 3000 ft, 914 m
Aufgelockert bewölkt at 5000 ft, 1524 m
Temperature:13°C, 55°F
Dew-point:11°C, 52°F
Atmospheric pressure:1004 hPa, 753.1 mmHg, 29.65 inHg, 0.991 atm
Relative humidity:87.6 %
METAR:ESNG 021550Z 11004KT 9999 SCT030CB SCT050 13/11 Q1004

Snelkoppelingen

Actuele weersinformatie van de hele wereld. Voeg locaties toe met het plus (+) symbool. Deze snelkoppelingen kunnen worden toegevoegd aan Google.

Lid van de Technetium groep

website free tracking
StatCounter NetStat W3C Validator

14-04-2021 10:31:35
astro.technetium.be money.technetium.be phote.technetium.be tafeltennistafel.technetium.be www.ligfiets.net